Oriskany Falls, NY

11:05 AM EST on March 04, 2015 (GMT -0500)
APRSWXNET Deansboro NY US | Change Station
CLOSE
Current Station
Personal Weather Station
Location: Deansboro, NY
Elevation: 1158 ft
Nearby Weather Stations

Elev 1158 ft 43.01 °N, 75.44 °W | Updated 33 minutes ago

Overcast
Overcast
30 °F
Feels Like 30 °F
N
2
Wind Variable Wind from WSW
Gusts 6.0 mph

Today
High -- | Low -- °F
--% Chance of Precip.
Yesterday
High -- | Low -- °F
Precip. -- in
6:33 AM 5:54 PM
Waxing Gibbous, 99% visible
Pressure 29.88 in
Visibility 10.0 miles
Clouds Mostly Cloudy 2300 ft
Overcast 3500 ft
Windchill 30 °F
Dew Point 28 °F
Humidity 92%
Rainfall 0.00 in
Snow Depth Not available.
UV 1 out of 12
Pollen .40 out of 12
Air Quality Not available.
Flu Activity Not available.
METAR KRME 041553Z 29012KT 10SM BKN023 OVC035 00/M03 A2987 RMK AO2 SLP119 T00001033

More Conditions Fewer Conditions

Pressure 29.88 in
Visibility 10.0 miles
Clouds Mostly Cloudy 2300 ft
Overcast 3500 ft
Windchill 30 °F
Dew Point 28 °F
Humidity 92%
Rainfall 0.00 in
Snow Depth Not available.
UV 1 out of 12
Pollen .40 out of 12
Air Quality Not available.
Flu Activity Not available.
METAR KRME 041553Z 29012KT 10SM BKN023 OVC035 00/M03 A2987 RMK AO2 SLP119 T00001033

More Conditions Fewer Conditions

10-Day Weather Forecast

Almanac

Astronomy

Mar. 04, 2015 Rise Set
Actual Time
Civil Twilight
Nautical Twilight
Astronomical Twilight
Moon
Length of Visible Light
Length of Day
Tomorrow will be .
, % of the Moon is Illuminated

Today's Extremes

State Highs State Lows

Community

WunderPhotos

Upload Photos

1,802,502 photos uploaded!

WunderBlogs® & News

Nearby

Air Quality

  Air Quality AQ Index Pollutant
Not available.

Snow Depth

Station Depth Elevation

Earthquake Activity

City Distance Mag. Time & Date
Minimum magnitude displayed is 2.5.

Coastal Water Temperatures

Place Temperature

Nearby Weather Stations